createdAt,value
2018-04-08T00:01:53.987Z,48.10
2018-04-08T00:04:22.371Z,48.20
2018-04-08T00:06:50.676Z,48.30
2018-04-08T00:09:18.954Z,48.40
2018-04-08T00:11:47.280Z,48.30
2018-04-08T00:14:15.576Z,48.50
2018-04-08T00:16:43.873Z,48.30
2018-04-08T00:19:12.189Z,48.40
2018-04-08T00:21:41.254Z,48.40
2018-04-08T00:24:09.592Z,48.40
2018-04-08T00:26:37.878Z,48.50
2018-04-08T00:29:06.215Z,48.60
2018-04-08T00:31:34.494Z,48.80
2018-04-08T00:34:03.562Z,48.70
2018-04-08T00:36:31.870Z,48.70
2018-04-08T00:39:00.147Z,48.80
2018-04-08T00:41:29.244Z,48.80
2018-04-08T00:43:58.309Z,49.00
2018-04-08T00:46:26.571Z,49.00
2018-04-08T00:48:54.873Z,49.10
2018-04-08T00:51:23.161Z,49.10
2018-04-08T01:07:21.590Z,48.70
2018-04-08T01:09:50.534Z,49.30
2018-04-08T01:12:19.331Z,49.20
2018-04-08T01:14:47.457Z,49.80
2018-04-08T01:17:16.304Z,49.60
2018-04-08T01:19:45.353Z,49.60
2018-04-08T01:22:13.710Z,49.60
2018-04-08T01:24:41.982Z,49.70
2018-04-08T01:27:10.260Z,49.80
2018-04-08T01:29:38.593Z,49.70
2018-04-08T01:32:06.870Z,49.90
2018-04-08T01:34:35.144Z,49.80
2018-04-08T01:37:03.528Z,50.00
2018-04-08T01:39:31.817Z,50.10
2018-04-08T01:42:00.306Z,50.00
2018-04-08T01:44:29.368Z,50.10
2018-04-08T01:46:57.694Z,50.10
2018-04-08T01:49:26.795Z,50.30
2018-04-08T01:51:55.857Z,50.40
2018-04-08T01:54:24.269Z,50.40
2018-04-08T01:56:53.449Z,50.60
2018-04-08T01:59:22.514Z,50.50
2018-04-08T02:01:50.843Z,50.50
2018-04-08T02:04:19.267Z,50.70
2018-04-08T02:06:47.552Z,50.60
2018-04-08T02:09:15.872Z,50.50
2018-04-08T02:11:44.925Z,50.70
2018-04-08T02:14:13.234Z,50.70
2018-04-08T02:16:41.573Z,50.80
2018-04-08T02:19:09.872Z,50.70
2018-04-08T02:21:38.133Z,50.80
2018-04-08T02:24:06.484Z,50.80
2018-04-08T02:26:34.761Z,50.90
2018-04-08T02:29:03.130Z,51.00
2018-04-08T02:31:31.445Z,51.00
2018-04-08T02:33:59.737Z,51.00
2018-04-08T02:36:28.052Z,51.10
2018-04-08T02:38:57.094Z,51.20
2018-04-08T02:41:27.341Z,51.20
2018-04-08T02:43:55.641Z,51.30
2018-04-08T02:46:23.906Z,51.40
2018-04-08T02:48:52.223Z,51.40
2018-04-08T02:51:20.577Z,51.40
2018-04-08T02:53:48.909Z,51.50
2018-04-08T02:56:17.208Z,51.50
2018-04-08T02:58:45.587Z,51.50
2018-04-08T03:01:13.900Z,51.60
2018-04-08T03:03:42.960Z,51.70
2018-04-08T03:06:11.302Z,51.70
2018-04-08T03:08:39.592Z,51.70
2018-04-08T03:11:07.914Z,52.00
2018-04-08T03:13:36.201Z,52.00
2018-04-08T03:16:05.239Z,52.40
2018-04-08T03:18:33.564Z,52.00
2018-04-08T03:21:01.855Z,52.20
2018-04-08T03:23:30.905Z,52.20
2018-04-08T03:25:59.225Z,52.20
2018-04-08T03:28:27.510Z,52.30
2018-04-08T03:30:56.606Z,52.20
2018-04-08T03:33:24.888Z,52.20
2018-04-08T03:35:53.939Z,52.30
2018-04-08T03:38:22.442Z,52.30
2018-04-08T03:40:50.741Z,52.50
2018-04-08T03:43:19.846Z,52.50
2018-04-08T03:45:49.012Z,52.60
2018-04-08T03:48:17.317Z,52.60
2018-04-08T03:50:45.631Z,52.70
2018-04-08T03:53:13.902Z,52.70
2018-04-08T03:55:42.233Z,52.60
2018-04-08T03:58:10.524Z,52.60
2018-04-08T04:00:38.804Z,53.20
2018-04-08T04:03:07.110Z,52.80
2018-04-08T04:05:38.927Z,52.70
2018-04-08T04:08:07.267Z,52.70
2018-04-08T04:10:35.547Z,52.80
2018-04-08T04:13:03.840Z,52.80
2018-04-08T04:15:32.152Z,53.00
2018-04-08T04:18:00.439Z,53.00
2018-04-08T04:20:40.599Z,53.00
2018-04-08T04:23:21.511Z,53.10
2018-04-08T04:26:01.504Z,53.10
2018-04-08T04:28:29.785Z,53.20
2018-04-08T04:30:58.114Z,53.20
2018-04-08T04:33:26.403Z,53.20
2018-04-08T04:35:54.765Z,53.20
2018-04-08T04:38:23.064Z,53.20
2018-04-08T04:40:51.345Z,53.10
2018-04-08T04:43:19.671Z,53.20
2018-04-08T04:45:47.991Z,53.20
2018-04-08T04:48:16.276Z,53.30
2018-04-08T04:50:44.582Z,53.30
2018-04-08T04:53:13.673Z,53.20
2018-04-08T04:55:42.014Z,53.20
2018-04-08T04:58:10.317Z,53.20
2018-04-08T05:00:38.589Z,53.20
2018-04-08T05:03:06.901Z,53.20
2018-04-08T05:05:35.190Z,53.20
2018-04-08T05:08:04.306Z,53.10
2018-04-08T05:10:32.606Z,53.10
2018-04-08T05:13:00.886Z,53.00
2018-04-08T05:15:29.187Z,53.10
2018-04-08T05:17:57.513Z,53.10
2018-04-08T05:20:25.835Z,53.00
2018-04-08T05:22:54.155Z,52.90
2018-04-08T05:25:23.247Z,52.90
2018-04-08T05:27:51.548Z,52.90
2018-04-08T05:30:19.833Z,52.90
2018-04-08T05:32:48.193Z,52.70
2018-04-08T05:35:17.247Z,52.90
2018-04-08T05:37:45.532Z,52.90
2018-04-08T05:40:13.843Z,52.80
2018-04-08T05:42:42.900Z,52.80
2018-04-08T05:45:11.224Z,52.80
2018-04-08T05:47:39.494Z,52.80
2018-04-08T05:50:08.550Z,52.80
2018-04-08T05:52:36.879Z,52.70
2018-04-08T05:55:05.952Z,52.60
2018-04-08T05:57:34.287Z,52.70
2018-04-08T06:00:02.606Z,52.60
2018-04-08T06:02:30.925Z,52.60
2018-04-08T06:04:59.278Z,52.60
2018-04-08T06:07:28.373Z,52.50
2018-04-08T06:09:56.750Z,52.50
2018-04-08T06:12:28.128Z,52.50
2018-04-08T06:14:56.458Z,52.50
2018-04-08T06:17:24.794Z,52.40
2018-04-08T06:19:53.313Z,52.40
2018-04-08T06:22:21.667Z,52.30
2018-04-08T06:24:50.025Z,52.30
2018-04-08T06:27:18.288Z,52.30
2018-04-08T06:29:47.367Z,52.10
2018-04-08T06:32:15.646Z,52.20
2018-04-08T06:37:29.256Z,52.70
2018-04-08T06:39:57.675Z,52.10
2018-04-08T06:42:44.697Z,52.10
2018-04-08T06:45:13.109Z,52.10
2018-04-08T06:47:42.156Z,52.00
2018-04-08T06:50:11.573Z,51.90
2018-04-08T06:52:40.105Z,52.30
2018-04-08T06:55:10.268Z,52.30
2018-04-08T06:57:39.032Z,51.90
2018-04-08T07:00:11.167Z,51.90
2018-04-08T07:02:40.267Z,52.00
2018-04-08T07:05:09.930Z,51.80
2018-04-08T07:07:38.226Z,51.80
2018-04-08T07:10:06.563Z,51.80
2018-04-08T07:12:34.836Z,51.80
2018-04-08T07:15:04.038Z,51.60
2018-04-08T07:17:32.340Z,51.70
2018-04-08T07:20:00.634Z,51.60
2018-04-08T07:22:28.987Z,51.50
2018-04-08T07:24:57.322Z,51.40
2018-04-08T07:27:26.363Z,51.20
2018-04-08T07:29:55.480Z,51.10
2018-04-08T07:32:24.568Z,51.20
2018-04-08T07:34:52.930Z,51.10
2018-04-08T07:37:21.393Z,50.90
2018-04-08T07:39:49.753Z,50.80
2018-04-08T07:42:18.364Z,50.60
2018-04-08T07:44:47.163Z,50.60
2018-04-08T07:47:15.540Z,50.50
2018-04-08T07:49:44.152Z,50.30
2018-04-08T07:52:15.537Z,50.00
2018-04-08T07:54:46.574Z,49.70
2018-04-08T07:57:14.922Z,49.70
2018-04-08T07:59:43.240Z,49.70
2018-04-08T08:04:46.232Z,49.40
2018-04-08T08:07:14.506Z,49.40
2018-04-08T08:09:42.830Z,49.30
2018-04-08T08:12:11.132Z,49.30
2018-04-08T08:14:39.431Z,49.20
2018-04-08T08:17:07.823Z,49.20
2018-04-08T08:19:36.099Z,49.00
2018-04-08T08:22:06.139Z,48.90
2018-04-08T08:24:35.472Z,49.10
2018-04-08T08:27:05.820Z,48.70
2018-04-08T08:29:34.217Z,48.60
2018-04-08T08:32:02.611Z,48.80
2018-04-08T08:34:30.916Z,48.60
2018-04-08T08:36:59.392Z,48.50
2018-04-08T08:39:28.548Z,47.90
2018-04-08T08:41:56.854Z,48.20
2018-04-08T08:44:28.083Z,48.40
2018-04-08T08:46:56.482Z,48.20
2018-04-08T08:49:26.255Z,48.20
2018-04-08T08:51:55.072Z,48.20
2018-04-08T08:54:23.595Z,48.20
2018-04-08T08:56:52.110Z,48.00
2018-04-08T08:59:20.525Z,48.00
2018-04-08T09:01:50.075Z,47.80
2018-04-08T09:04:18.522Z,47.70
2018-04-08T09:06:46.842Z,48.00
2018-04-08T09:09:15.148Z,47.60
2018-04-08T09:11:43.472Z,47.60
2018-04-08T09:14:15.288Z,47.40
2018-04-08T09:16:46.742Z,47.30
2018-04-08T09:19:21.928Z,47.10
2018-04-08T09:25:09.556Z,46.60
2018-04-08T09:27:37.934Z,46.70
2018-04-08T09:30:06.257Z,46.60
2018-04-08T09:32:34.606Z,46.70
2018-04-08T09:35:03.011Z,46.50
2018-04-08T09:37:35.052Z,46.40
2018-04-08T09:40:03.454Z,46.40
2018-04-08T09:42:31.824Z,46.00
2018-04-08T09:45:04.178Z,46.30
2018-04-08T09:47:32.659Z,46.10
2018-04-08T09:50:01.213Z,46.00
2018-04-08T09:52:29.857Z,46.00
2018-04-08T09:54:58.371Z,45.90
2018-04-08T09:57:27.312Z,45.90
2018-04-08T09:59:55.582Z,45.80
2018-04-08T10:02:36.627Z,45.60
2018-04-08T10:05:04.919Z,45.40
2018-04-08T10:07:33.214Z,45.40
2018-04-08T10:10:01.531Z,45.40
2018-04-08T10:12:29.830Z,45.20
2018-04-08T10:14:58.113Z,45.30
2018-04-08T10:17:26.448Z,45.40
2018-04-08T10:19:55.502Z,45.10
2018-04-08T10:22:23.830Z,45.00
2018-04-08T10:24:52.234Z,44.90
2018-04-08T10:27:20.516Z,44.90
2018-04-08T10:29:48.842Z,44.60
2018-04-08T10:32:17.157Z,44.40
2018-04-08T10:34:45.602Z,44.30
2018-04-08T10:37:14.781Z,44.20
2018-04-08T10:39:43.214Z,44.00
2018-04-08T10:42:12.415Z,44.40
2018-04-08T10:44:41.566Z,44.30
2018-04-08T10:47:09.904Z,44.10
2018-04-08T10:49:38.189Z,44.00
2018-04-08T10:52:07.156Z,43.80
2018-04-08T10:54:36.291Z,43.50
2018-04-08T10:57:04.564Z,43.40
2018-04-08T10:59:32.962Z,43.50
2018-04-08T11:02:01.241Z,43.30
2018-04-08T11:04:29.594Z,43.20
2018-04-08T11:06:57.910Z,43.20
2018-04-08T11:09:26.413Z,43.00
2018-04-08T11:11:54.847Z,42.80
2018-04-08T11:14:23.899Z,42.80
2018-04-08T11:16:52.992Z,42.20
2018-04-08T11:19:21.358Z,42.20
2018-04-08T11:21:49.700Z,42.20
2018-04-08T11:24:20.181Z,41.50
2018-04-08T11:26:48.548Z,41.70
2018-04-08T11:29:16.894Z,41.90
2018-04-08T11:31:46.037Z,42.30
2018-04-08T11:34:14.335Z,42.50
2018-04-08T11:36:43.515Z,41.80
2018-04-08T11:39:11.866Z,41.70
2018-04-08T11:41:40.270Z,41.50
2018-04-08T11:44:08.643Z,41.10
2018-04-08T11:46:37.008Z,41.70
2018-04-08T11:49:05.689Z,41.20
2018-04-08T11:51:34.008Z,41.10
2018-04-08T11:54:02.336Z,40.10
2018-04-08T11:56:30.672Z,39.60
2018-04-08T11:58:59.741Z,39.20
2018-04-08T12:01:28.155Z,39.20
2018-04-08T12:03:57.204Z,38.80
2018-04-08T12:06:25.549Z,38.80
2018-04-08T12:08:53.861Z,39.10
2018-04-08T12:11:22.144Z,39.20
2018-04-08T12:13:50.478Z,38.90
2018-04-08T12:16:18.771Z,37.30
2018-04-08T12:18:47.075Z,37.10
2018-04-08T12:21:15.405Z,36.50
2018-04-08T12:23:43.714Z,36.50
2018-04-08T12:26:26.973Z,36.40
2018-04-08T12:28:55.272Z,36.60
2018-04-08T12:31:23.622Z,37.10
2018-04-08T12:33:51.891Z,37.40
2018-04-08T12:36:21.153Z,38.00
2018-04-08T12:38:49.577Z,38.40
2018-04-08T12:41:17.889Z,38.50
2018-04-08T12:43:46.944Z,39.30
2018-04-08T12:46:15.289Z,38.80
2018-04-08T12:48:43.584Z,38.70
2018-04-08T12:51:11.962Z,38.90
2018-04-08T12:53:40.256Z,39.80
2018-04-08T12:56:09.706Z,39.70
2018-04-08T12:58:38.029Z,40.00
2018-04-08T13:01:06.361Z,39.30
2018-04-08T13:03:34.745Z,39.40
2018-04-08T13:06:03.859Z,37.60
2018-04-08T13:08:32.147Z,37.60
2018-04-08T13:11:00.458Z,37.30
2018-04-08T13:13:28.811Z,36.70
2018-04-08T13:15:57.163Z,35.70
2018-04-08T13:18:26.244Z,34.10
2018-04-08T13:20:54.539Z,34.10
2018-04-08T13:23:23.640Z,31.90
2018-04-08T13:25:51.986Z,31.90
2018-04-08T13:28:20.322Z,32.00
2018-04-08T13:30:48.631Z,32.80
2018-04-08T13:33:16.936Z,32.60
2018-04-08T13:35:46.056Z,32.70
2018-04-08T13:38:14.369Z,32.60
2018-04-08T13:40:43.281Z,32.30
2018-04-08T13:43:11.673Z,31.70
2018-04-08T13:45:39.987Z,31.30
2018-04-08T13:48:08.336Z,31.50
2018-04-08T13:50:36.610Z,30.20
2018-04-08T13:53:04.961Z,30.00
2018-04-08T13:55:33.253Z,29.70
2018-04-08T13:58:01.603Z,29.30
2018-04-08T14:00:29.890Z,29.30
2018-04-08T14:02:58.228Z,29.30
2018-04-08T14:05:27.336Z,29.00
2018-04-08T14:07:56.394Z,29.00
2018-04-08T14:10:24.678Z,29.00
2018-04-08T14:12:53.059Z,28.90
2018-04-08T14:15:21.366Z,29.00
2018-04-08T14:17:49.717Z,29.00
2018-04-08T14:20:18.074Z,28.80
2018-04-08T14:22:46.350Z,28.60
2018-04-08T14:25:14.691Z,28.20
2018-04-08T14:27:43.013Z,28.20
2018-04-08T14:30:11.329Z,28.30
2018-04-08T14:32:39.705Z,28.20
2018-04-08T14:35:08.782Z,28.20
2018-04-08T14:37:37.093Z,28.20
2018-04-08T14:40:06.476Z,27.90
2018-04-08T14:42:35.886Z,28.00
2018-04-08T14:45:04.671Z,27.90
2018-04-08T14:47:33.280Z,27.80
2018-04-08T14:50:01.933Z,27.70
2018-04-08T14:52:30.646Z,27.60
2018-04-08T14:54:59.211Z,27.40
2018-04-08T14:57:27.897Z,27.70
2018-04-08T14:59:56.673Z,27.80
2018-04-08T15:02:26.053Z,27.70
2018-04-08T15:04:55.616Z,28.10
2018-04-08T15:07:24.341Z,28.00
2018-04-08T15:09:53.695Z,29.40
2018-04-08T15:12:22.071Z,29.30
2018-04-08T15:14:50.312Z,30.00
2018-04-08T15:17:18.652Z,30.60
2018-04-08T15:19:47.706Z,31.60
2018-04-08T15:22:16.057Z,31.70
2018-04-08T15:24:44.357Z,32.20
2018-04-08T15:27:12.678Z,32.60
2018-04-08T15:29:41.747Z,33.50
2018-04-08T15:32:10.044Z,33.50
2018-04-08T15:34:39.133Z,34.30
2018-04-08T15:37:08.207Z,33.80
2018-04-08T15:39:36.525Z,33.80
2018-04-08T15:42:05.601Z,32.80
2018-04-08T15:44:34.655Z,32.80
2018-04-08T15:47:02.989Z,32.60
2018-04-08T15:49:32.034Z,31.80
2018-04-08T15:52:01.036Z,31.70
2018-04-08T15:54:29.346Z,31.50
2018-04-08T15:56:58.402Z,31.70
2018-04-08T15:59:28.141Z,31.10
2018-04-08T16:01:56.437Z,31.00
2018-04-08T16:04:25.541Z,30.80
2018-04-08T16:06:53.852Z,30.80
2018-04-08T16:09:22.137Z,30.80
2018-04-08T16:11:50.426Z,30.60
2018-04-08T16:14:18.835Z,30.40
2018-04-08T16:16:47.131Z,30.40
2018-04-08T16:19:16.238Z,30.70
2018-04-08T16:21:45.359Z,30.80
2018-04-08T16:24:13.662Z,30.70
2018-04-08T16:26:42.704Z,30.80
2018-04-08T16:29:11.909Z,31.70
2018-04-08T16:31:40.982Z,32.00
2018-04-08T16:34:09.339Z,32.10
2018-04-08T16:36:37.686Z,32.60
2018-04-08T16:39:06.757Z,33.20
2018-04-08T16:41:35.886Z,33.20
2018-04-08T16:44:04.180Z,33.20
2018-04-08T16:46:32.529Z,33.40
2018-04-08T16:49:00.852Z,33.60
2018-04-08T16:51:29.626Z,33.80
2018-04-08T16:53:58.013Z,34.00
2018-04-08T16:56:27.268Z,34.20
2018-04-08T16:58:55.682Z,34.30
2018-04-08T17:01:24.297Z,34.30
2018-04-08T17:03:52.821Z,34.50
2018-04-08T17:06:21.569Z,34.80
2018-04-08T17:08:49.940Z,35.00
2018-04-08T17:11:18.512Z,35.20
2018-04-08T17:13:47.288Z,35.60
2018-04-08T17:16:17.370Z,35.90
2018-04-08T17:18:51.057Z,36.20
2018-04-08T17:21:19.892Z,36.20
2018-04-08T17:23:50.458Z,36.80
2018-04-08T17:26:19.081Z,36.70
2018-04-08T17:28:47.926Z,37.10
2018-04-08T17:31:17.004Z,37.60
2018-04-08T17:33:45.543Z,37.90
2018-04-08T17:36:14.348Z,38.10
2018-04-08T17:38:42.895Z,38.40
2018-04-08T17:41:11.220Z,38.60
2018-04-08T17:43:40.375Z,39.10
2018-04-08T17:46:08.750Z,39.20
2018-04-08T17:48:37.095Z,39.30
2018-04-08T17:51:05.447Z,39.70
2018-04-08T17:53:34.622Z,40.20
2018-04-08T17:56:03.064Z,40.20
2018-04-08T17:58:31.384Z,40.30
2018-04-08T18:00:59.747Z,40.50
2018-04-08T18:03:28.163Z,40.70
2018-04-08T18:05:56.839Z,40.90
2018-04-08T18:08:26.108Z,40.90
2018-04-08T18:10:54.892Z,41.20
2018-04-08T18:13:26.718Z,41.70
2018-04-08T18:15:56.321Z,41.60
2018-04-08T18:18:25.523Z,41.70
2018-04-08T18:20:54.633Z,41.80
2018-04-08T18:23:23.222Z,42.00
2018-04-08T18:25:54.235Z,41.80
2018-04-08T18:28:23.139Z,42.10
2018-04-08T18:30:52.296Z,42.30
2018-04-08T18:33:21.101Z,42.40
2018-04-08T18:35:49.538Z,42.50
2018-04-08T18:38:18.133Z,42.60
2018-04-08T18:40:48.019Z,42.70
2018-04-08T18:43:16.573Z,42.80
2018-04-08T18:45:45.401Z,42.90
2018-04-08T18:48:14.156Z,43.00
2018-04-08T18:50:42.876Z,43.00
2018-04-08T18:53:12.704Z,43.30
2018-04-08T18:55:41.068Z,43.40
2018-04-08T18:58:10.775Z,43.40
2018-04-08T19:00:40.895Z,43.70
2018-04-08T19:03:11.049Z,43.70
2018-04-08T19:05:40.353Z,43.70
2018-04-08T19:08:10.389Z,44.10
2018-04-08T19:10:41.464Z,44.20
2018-04-08T19:13:10.245Z,44.30
2018-04-08T19:15:39.691Z,44.50
2018-04-08T19:20:58.722Z,44.70
2018-04-08T19:23:27.190Z,44.70
2018-04-08T19:25:55.725Z,44.90
2018-04-08T19:28:24.864Z,45.20
2018-04-08T19:30:53.311Z,45.10
2018-04-08T19:33:21.791Z,45.20
2018-04-08T19:35:50.673Z,45.40
2018-04-08T19:38:19.916Z,45.50
2018-04-08T19:40:51.540Z,45.50
2018-04-08T19:43:20.367Z,45.60
2018-04-08T19:45:50.199Z,46.00
2018-04-08T19:48:19.909Z,46.20
2018-04-08T19:50:49.827Z,46.30
2018-04-08T19:53:18.467Z,46.40
2018-04-08T19:55:47.993Z,46.60
2018-04-08T19:58:16.430Z,46.60
2018-04-08T20:00:46.127Z,47.20
2018-04-08T20:03:14.614Z,46.90
2018-04-08T20:05:43.884Z,47.10
2018-04-08T20:08:12.406Z,47.20
2018-04-08T20:10:40.855Z,47.50
2018-04-08T20:13:09.331Z,47.50
2018-04-08T20:15:38.577Z,47.70
2018-04-08T20:18:07.886Z,47.80
2018-04-08T20:20:36.333Z,47.80
2018-04-08T20:23:04.805Z,48.00
2018-04-08T20:25:34.198Z,48.00
2018-04-08T20:28:02.702Z,48.10
2018-04-08T20:30:31.833Z,48.30
2018-04-08T20:33:00.923Z,48.40
2018-04-08T20:35:30.154Z,48.60
2018-04-08T20:37:59.579Z,48.80
2018-04-08T20:40:28.210Z,48.80
2018-04-08T20:42:56.925Z,49.00
2018-04-08T20:45:25.358Z,49.00
2018-04-08T20:47:53.918Z,49.10
2018-04-08T20:50:22.287Z,49.20
2018-04-08T20:52:50.605Z,49.40
2018-04-08T20:55:19.137Z,49.40
2018-04-08T20:57:47.440Z,49.60
2018-04-08T21:00:15.860Z,49.80
2018-04-08T21:02:44.968Z,50.20
2018-04-08T21:05:14.072Z,50.30
2018-04-08T21:07:42.451Z,50.30
2018-04-08T21:10:11.565Z,50.60
2018-04-08T21:12:39.966Z,50.60
2018-04-08T21:15:08.264Z,50.70
2018-04-08T21:17:36.574Z,50.70
2018-04-08T21:20:05.733Z,50.70
2018-04-08T21:22:34.774Z,50.80
2018-04-08T21:25:03.128Z,50.90
2018-04-08T21:27:31.426Z,51.10
2018-04-08T21:29:59.715Z,51.20
2018-04-08T21:32:28.075Z,51.10
2018-04-08T21:34:56.396Z,51.20
2018-04-08T21:37:24.768Z,51.40
2018-04-08T21:39:53.057Z,51.30
2018-04-08T21:42:21.353Z,52.00
2018-04-08T21:44:49.682Z,51.50
2018-04-08T21:47:17.971Z,51.50
2018-04-08T21:49:46.324Z,51.60
2018-04-08T21:52:15.391Z,51.70
2018-04-08T21:54:43.854Z,51.70
2018-04-08T21:57:12.253Z,51.80
2018-04-08T21:59:40.589Z,52.00
2018-04-08T22:02:08.915Z,51.90
2018-04-08T22:04:37.192Z,52.00
2018-04-08T22:07:05.543Z,52.20
2018-04-08T22:09:33.827Z,52.20
2018-04-08T22:12:02.115Z,52.40
2018-04-08T22:14:30.450Z,52.50
2018-04-08T22:16:59.535Z,52.60
2018-04-08T22:19:28.666Z,53.00
2018-04-08T22:21:56.947Z,53.00
2018-04-08T22:24:25.290Z,52.90
2018-04-08T22:26:53.577Z,53.20
2018-04-08T22:29:22.626Z,53.30
2018-04-08T22:31:50.954Z,53.40
2018-04-08T22:34:19.915Z,53.40
2018-04-08T22:36:48.227Z,53.50
2018-04-08T22:39:16.566Z,53.50
2018-04-08T22:41:44.838Z,53.50
2018-04-08T22:44:13.180Z,53.70
2018-04-08T22:46:41.467Z,53.80
2018-04-08T22:49:09.776Z,53.90
2018-04-08T22:51:38.086Z,54.00
2018-04-08T22:54:07.151Z,54.20
2018-04-08T22:56:35.470Z,54.20
2018-04-08T22:59:03.773Z,54.20
2018-04-08T23:01:32.772Z,54.30
2018-04-08T23:04:01.076Z,54.30
2018-04-08T23:06:29.357Z,54.40
2018-04-08T23:08:57.686Z,54.60
2018-04-08T23:11:26.093Z,54.60
2018-04-08T23:13:54.372Z,54.70
2018-04-08T23:16:22.693Z,54.80
2018-04-08T23:18:50.968Z,54.90
2018-04-08T23:21:19.317Z,54.80
2018-04-08T23:23:47.588Z,54.90
2018-04-08T23:26:15.865Z,55.00
2018-04-08T23:28:44.186Z,55.00
2018-04-08T23:31:13.247Z,55.20
2018-04-08T23:33:41.569Z,55.10
2018-04-08T23:36:10.613Z,55.20
2018-04-08T23:38:38.909Z,55.20
2018-04-08T23:41:07.209Z,55.20
2018-04-08T23:43:36.267Z,55.20
2018-04-08T23:46:04.587Z,55.30
2018-04-08T23:48:33.641Z,55.30
2018-04-08T23:51:01.934Z,55.30
2018-04-08T23:53:30.270Z,55.40
2018-04-08T23:55:58.559Z,55.50
2018-04-08T23:58:26.845Z,56.40
